createdAt,value
2019-05-01T00:01:37.660Z,10.43
2019-05-01T00:04:14.358Z,10.42
2019-05-01T00:06:51.300Z,10.40
2019-05-01T00:09:20.922Z,10.41
2019-05-01T00:11:50.246Z,10.42
2019-05-01T00:14:19.620Z,10.38
2019-05-01T00:16:49.627Z,10.40
2019-05-01T00:19:18.995Z,10.41
2019-05-01T00:21:48.411Z,10.43
2019-05-01T00:24:17.799Z,10.40
2019-05-01T00:26:47.192Z,10.38
2019-05-01T00:29:16.582Z,10.40
2019-05-01T00:31:45.889Z,10.39
2019-05-01T00:34:15.240Z,10.37
2019-05-01T00:36:44.741Z,10.38
2019-05-01T00:39:14.368Z,10.39
2019-05-01T00:41:43.677Z,10.32
2019-05-01T00:44:13.139Z,10.34
2019-05-01T00:46:42.355Z,10.33
2019-05-01T00:49:11.786Z,10.32
2019-05-01T00:51:41.167Z,10.32
2019-05-01T00:54:10.677Z,10.32
2019-05-01T00:56:44.404Z,10.32
2019-05-01T00:59:30.707Z,10.30
2019-05-01T01:02:07.649Z,10.29
2019-05-01T01:04:38.545Z,10.31
2019-05-01T01:07:07.913Z,10.27
2019-05-01T01:09:37.268Z,10.26
2019-05-01T01:12:06.737Z,10.25
2019-05-01T01:14:36.101Z,10.24
2019-05-01T01:17:05.525Z,10.24
2019-05-01T01:19:34.973Z,10.26
2019-05-01T01:22:04.478Z,10.24
2019-05-01T01:24:33.853Z,10.24
2019-05-01T01:27:05.006Z,10.24
2019-05-01T01:29:34.378Z,10.28
2019-05-01T01:32:04.471Z,10.27
2019-05-01T01:34:33.864Z,10.33
2019-05-01T01:37:03.229Z,10.36
2019-05-01T01:39:32.889Z,10.36
2019-05-01T01:42:02.803Z,10.34
2019-05-01T01:44:47.399Z,10.38
2019-05-01T01:47:17.249Z,10.35
2019-05-01T01:49:46.811Z,10.36
2019-05-01T01:52:16.464Z,10.35
2019-05-01T01:54:46.062Z,10.33
2019-05-01T01:57:15.929Z,10.36
2019-05-01T01:59:45.585Z,10.35
2019-05-01T02:02:22.444Z,10.38
2019-05-01T02:04:53.648Z,10.36
2019-05-01T02:07:23.101Z,10.38
2019-05-01T02:09:52.763Z,10.41
2019-05-01T02:12:22.713Z,10.41
2019-05-01T02:14:52.081Z,10.38
2019-05-01T02:17:21.695Z,10.37
2019-05-01T02:19:51.117Z,10.38
2019-05-01T02:22:20.475Z,10.37
2019-05-01T02:24:49.811Z,10.40
2019-05-01T02:27:21.147Z,10.38
2019-05-01T02:29:55.243Z,10.37
2019-05-01T02:32:29.132Z,10.38
2019-05-01T02:35:00.203Z,10.38
2019-05-01T02:37:31.511Z,10.40
2019-05-01T02:40:03.576Z,10.37
2019-05-01T02:42:35.365Z,10.38
2019-05-01T02:45:05.813Z,10.34
2019-05-01T02:47:37.783Z,10.34
2019-05-01T02:50:10.073Z,10.33
2019-05-01T02:52:41.941Z,10.30
2019-05-01T02:55:15.345Z,10.32
2019-05-01T02:57:47.030Z,10.28
2019-05-01T03:00:17.875Z,10.30
2019-05-01T03:02:47.876Z,10.32
2019-05-01T03:05:17.214Z,10.30
2019-05-01T03:07:46.872Z,10.30
2019-05-01T03:10:16.856Z,10.29
2019-05-01T03:12:49.155Z,10.30
2019-05-01T03:15:20.955Z,10.29
2019-05-01T03:17:52.565Z,10.28
2019-05-01T03:20:24.469Z,10.27
2019-05-01T03:23:12.436Z,10.25
2019-05-01T03:25:42.691Z,10.27
2019-05-01T03:28:12.922Z,10.26
2019-05-01T03:30:42.326Z,10.25
2019-05-01T03:33:11.676Z,10.27
2019-05-01T03:35:41.550Z,10.27
2019-05-01T03:38:11.398Z,10.26
2019-05-01T03:40:41.924Z,10.24
2019-05-01T03:43:12.899Z,10.22
2019-05-01T03:45:43.458Z,10.23
2019-05-01T03:48:13.134Z,10.19
2019-05-01T03:50:46.490Z,10.19
2019-05-01T03:53:14.046Z,10.18
2019-05-01T03:55:43.427Z,10.16
2019-05-01T03:58:12.812Z,10.14
2019-05-01T04:00:46.689Z,10.12
2019-05-01T04:03:23.524Z,10.10
2019-05-01T04:05:53.084Z,10.11
2019-05-01T04:08:22.552Z,10.07
2019-05-01T04:10:52.340Z,10.04
2019-05-01T04:13:21.865Z,10.07
2019-05-01T04:15:52.973Z,10.10
2019-05-01T04:18:22.689Z,10.09
2019-05-01T04:20:52.475Z,10.07
2019-05-01T04:23:22.249Z,10.07
2019-05-01T04:25:52.156Z,10.07
2019-05-01T04:28:39.608Z,10.10
2019-05-01T04:31:23.285Z,10.10
2019-05-01T04:33:54.893Z,10.12
2019-05-01T04:36:34.801Z,10.16
2019-05-01T04:39:06.693Z,10.17
2019-05-01T04:41:37.042Z,10.22
2019-05-01T04:44:06.952Z,10.23
2019-05-01T04:46:36.704Z,10.24
2019-05-01T04:49:06.457Z,10.29
2019-05-01T04:51:36.487Z,10.34
2019-05-01T04:54:06.033Z,10.35
2019-05-01T04:56:35.798Z,10.38
2019-05-01T04:59:05.681Z,10.38
2019-05-01T05:01:57.061Z,10.43
2019-05-01T05:04:27.091Z,10.45
2019-05-01T05:06:56.748Z,10.46
2019-05-01T05:09:39.921Z,10.48
2019-05-01T05:12:11.333Z,10.49
2019-05-01T05:14:43.407Z,10.47
2019-05-01T05:17:14.543Z,10.50
2019-05-01T05:19:44.124Z,10.54
2019-05-01T05:22:16.448Z,10.52
2019-05-01T05:24:45.850Z,10.50
2019-05-01T05:27:16.361Z,10.49
2019-05-01T05:29:47.900Z,10.49
2019-05-01T05:32:19.220Z,10.52
2019-05-01T05:34:50.479Z,10.53
2019-05-01T05:37:22.194Z,10.56
2019-05-01T05:39:52.940Z,10.56
2019-05-01T05:42:22.440Z,10.55
2019-05-01T05:44:51.816Z,10.54
2019-05-01T05:47:21.467Z,10.53
2019-05-01T05:49:51.660Z,10.53
2019-05-01T05:52:25.786Z,10.54
2019-05-01T05:55:08.140Z,10.54
2019-05-01T05:57:56.104Z,10.57
2019-05-01T06:00:44.595Z,10.56
2019-05-01T06:03:35.172Z,10.58
2019-05-01T06:06:17.793Z,10.62
2019-05-01T06:08:50.157Z,10.56
2019-05-01T06:11:40.096Z,10.63
2019-05-01T06:14:31.350Z,10.66
2019-05-01T06:17:07.533Z,10.72
2019-05-01T06:19:49.681Z,10.74
2019-05-01T06:22:20.641Z,10.76
2019-05-01T06:25:21.487Z,10.79
2019-05-01T06:27:44.778Z,10.82
2019-05-01T06:30:12.764Z,10.82
2019-05-01T06:32:42.472Z,10.85
2019-05-01T06:35:11.945Z,10.88
2019-05-01T06:38:02.247Z,10.88
2019-05-01T06:40:40.787Z,10.92
2019-05-01T06:43:27.258Z,10.99
2019-05-01T06:46:13.722Z,10.97
2019-05-01T06:48:53.376Z,11.01
2019-05-01T06:51:35.230Z,11.01
2019-05-01T06:54:11.325Z,11.02
2019-05-01T06:56:42.203Z,11.02
2019-05-01T06:59:12.640Z,11.05
2019-05-01T07:01:42.384Z,11.07
2019-05-01T07:04:14.184Z,11.11
2019-05-01T07:06:43.564Z,11.11
2019-05-01T07:09:17.286Z,11.16
2019-05-01T07:11:47.521Z,11.19
2019-05-01T07:14:17.605Z,11.16
2019-05-01T07:16:47.356Z,11.19
2019-05-01T07:19:18.326Z,11.23
2019-05-01T07:21:48.008Z,11.26
2019-05-01T07:24:17.811Z,11.30
2019-05-01T07:26:48.105Z,11.29
2019-05-01T07:29:22.647Z,11.31
2019-05-01T07:31:52.129Z,11.32
2019-05-01T07:34:25.789Z,11.38
2019-05-01T07:36:52.815Z,11.39
2019-05-01T07:39:22.336Z,11.44
2019-05-01T07:41:52.007Z,11.45
2019-05-01T07:44:35.181Z,11.54
2019-05-01T07:47:12.130Z,11.53
2019-05-01T07:49:57.093Z,11.60
2019-05-01T07:52:28.140Z,11.65
2019-05-01T07:54:58.219Z,11.70
2019-05-01T07:57:28.485Z,11.73
2019-05-01T08:00:03.109Z,11.74
2019-05-01T08:02:30.978Z,11.83
2019-05-01T08:05:04.946Z,11.79
2019-05-01T08:07:33.601Z,11.86
2019-05-01T08:10:03.024Z,11.90
2019-05-01T08:12:32.463Z,11.95
2019-05-01T08:15:02.860Z,11.96
2019-05-01T08:17:33.864Z,12.00
2019-05-01T08:20:21.076Z,12.04
2019-05-01T08:22:50.523Z,12.09
2019-05-01T08:25:19.945Z,12.05
2019-05-01T08:27:58.131Z,12.09
2019-05-01T08:30:32.170Z,12.13
2019-05-01T08:33:03.114Z,12.24
2019-05-01T08:35:36.518Z,12.36
2019-05-01T08:38:04.190Z,12.38
2019-05-01T08:40:33.686Z,12.40
2019-05-01T08:43:03.068Z,12.47
2019-05-01T08:45:50.626Z,12.51
2019-05-01T08:48:35.857Z,12.50
2019-05-01T08:51:05.294Z,12.59
2019-05-01T08:53:34.663Z,12.64
2019-05-01T08:56:04.122Z,12.70
2019-05-01T08:58:38.336Z,12.75
2019-05-01T09:01:10.768Z,12.75
2019-05-01T09:03:42.250Z,12.87
2019-05-01T09:06:13.979Z,12.86
2019-05-01T09:08:46.553Z,12.86
2019-05-01T09:11:15.913Z,12.85
2019-05-01T09:13:45.311Z,12.91
2019-05-01T09:16:14.858Z,12.94
2019-05-01T09:18:44.215Z,12.94
2019-05-01T09:21:13.751Z,12.95
2019-05-01T09:23:46.113Z,12.93
2019-05-01T09:26:18.992Z,12.99
2019-05-01T09:28:53.001Z,12.97
2019-05-01T09:31:24.012Z,13.03
2019-05-01T09:33:53.602Z,12.99
2019-05-01T09:36:23.116Z,12.97
2019-05-01T09:38:52.406Z,13.14
2019-05-01T09:41:21.801Z,13.24
2019-05-01T09:43:51.460Z,13.30
2019-05-01T09:46:22.763Z,13.34
2019-05-01T09:48:52.330Z,13.29
2019-05-01T09:51:29.731Z,13.18
2019-05-01T09:54:05.703Z,13.16
2019-05-01T09:56:35.036Z,13.24
2019-05-01T09:59:04.517Z,13.44
2019-05-01T10:01:34.281Z,13.49
2019-05-01T10:04:05.583Z,13.69
2019-05-01T10:06:34.745Z,13.75
2019-05-01T10:09:07.208Z,13.75
2019-05-01T10:11:40.596Z,13.75
2019-05-01T10:14:09.175Z,13.81
2019-05-01T10:16:38.574Z,13.69
2019-05-01T10:19:07.885Z,13.66
2019-05-01T10:21:37.254Z,13.68
2019-05-01T10:24:06.602Z,13.69
2019-05-01T10:26:37.621Z,13.63
2019-05-01T10:29:08.854Z,13.71
2019-05-01T10:31:56.203Z,13.70
2019-05-01T10:34:27.171Z,13.69
2019-05-01T10:36:56.607Z,13.81
2019-05-01T10:39:26.400Z,13.82
2019-05-01T10:41:55.739Z,13.73
2019-05-01T10:44:25.178Z,13.79
2019-05-01T10:46:54.567Z,13.77
2019-05-01T10:49:23.939Z,13.77
2019-05-01T10:51:53.307Z,13.74
2019-05-01T10:54:22.718Z,13.85
2019-05-01T10:56:52.259Z,14.09
2019-05-01T10:59:21.675Z,14.18
2019-05-01T11:01:55.068Z,14.17
2019-05-01T11:04:24.929Z,14.14
2019-05-01T11:06:54.313Z,14.14
2019-05-01T11:09:23.818Z,14.37
2019-05-01T11:11:53.305Z,14.57
2019-05-01T11:14:22.679Z,14.85
2019-05-01T11:16:52.193Z,14.99
2019-05-01T11:19:21.670Z,14.85
2019-05-01T11:21:53.427Z,14.86
2019-05-01T11:24:22.864Z,15.07
2019-05-01T11:26:52.329Z,15.35
2019-05-01T11:29:21.641Z,15.65
2019-05-01T11:31:58.753Z,16.02
2019-05-01T11:34:29.758Z,16.18
2019-05-01T11:37:06.893Z,16.25
2019-05-01T11:39:40.851Z,16.60
2019-05-01T11:42:13.653Z,16.58
2019-05-01T11:44:43.034Z,16.35
2019-05-01T11:47:12.527Z,16.29
2019-05-01T11:49:42.005Z,16.48
2019-05-01T11:52:11.309Z,16.77
2019-05-01T11:54:40.684Z,17.74
2019-05-01T11:57:10.102Z,17.83
2019-05-01T11:59:39.408Z,18.12
2019-05-01T12:02:08.770Z,18.33
2019-05-01T12:04:38.181Z,17.61
2019-05-01T12:07:07.536Z,17.07
2019-05-01T12:09:36.910Z,16.80
2019-05-01T12:12:07.965Z,16.69
2019-05-01T12:14:37.250Z,16.76
2019-05-01T12:17:08.181Z,16.73
2019-05-01T12:19:37.529Z,16.72
2019-05-01T12:22:06.960Z,16.52
2019-05-01T12:24:36.353Z,16.81
2019-05-01T12:27:05.961Z,17.24
2019-05-01T12:29:35.383Z,16.88
2019-05-01T12:32:04.856Z,16.69
2019-05-01T12:34:34.357Z,16.73
2019-05-01T12:37:17.255Z,16.91
2019-05-01T12:39:47.700Z,17.17
2019-05-01T12:42:18.722Z,17.06
2019-05-01T12:44:48.084Z,17.02
2019-05-01T12:47:19.131Z,16.92
2019-05-01T12:49:50.148Z,16.74
2019-05-01T12:52:37.613Z,16.68
2019-05-01T12:55:26.011Z,16.89
2019-05-01T12:57:55.573Z,17.06
2019-05-01T13:00:50.443Z,16.93
2019-05-01T13:03:19.853Z,17.01
2019-05-01T13:05:49.157Z,16.75
2019-05-01T13:08:18.533Z,16.30
2019-05-01T13:10:49.339Z,16.03
2019-05-01T13:13:18.664Z,15.92
2019-05-01T13:15:48.057Z,15.62
2019-05-01T13:18:17.440Z,15.35
2019-05-01T13:20:46.816Z,15.17
2019-05-01T13:23:16.165Z,14.97
2019-05-01T13:25:46.243Z,14.99
2019-05-01T13:28:17.259Z,14.98
2019-05-01T13:30:48.458Z,14.95
2019-05-01T13:33:17.929Z,14.90
2019-05-01T13:35:47.222Z,14.90
2019-05-01T13:38:16.586Z,14.86
2019-05-01T13:40:46.832Z,14.75
2019-05-01T13:43:16.063Z,14.59
2019-05-01T13:45:45.476Z,14.29
2019-05-01T13:48:14.812Z,14.01
2019-05-01T13:50:44.187Z,13.84
2019-05-01T13:53:13.571Z,13.62
2019-05-01T13:55:43.077Z,13.34
2019-05-01T13:58:12.457Z,13.05
2019-05-01T14:00:41.828Z,12.87
2019-05-01T14:03:11.464Z,12.82
2019-05-01T14:05:40.914Z,12.83
2019-05-01T14:10:38.632Z,12.80
2019-05-01T14:13:07.921Z,12.83
2019-05-01T14:15:37.284Z,12.77
2019-05-01T14:18:06.706Z,12.77
2019-05-01T14:20:37.701Z,12.72
2019-05-01T14:23:26.272Z,12.71
2019-05-01T14:26:08.567Z,12.71
2019-05-01T14:28:38.003Z,12.76
2019-05-01T14:31:07.612Z,12.76
2019-05-01T14:33:37.000Z,12.77
2019-05-01T14:36:06.989Z,12.78
2019-05-01T14:38:36.378Z,12.78
2019-05-01T14:41:05.821Z,12.77
2019-05-01T14:43:35.211Z,12.78
2019-05-01T14:46:04.685Z,12.81
2019-05-01T14:48:48.257Z,12.82
2019-05-01T14:51:17.605Z,12.82
2019-05-01T14:53:47.095Z,12.84
2019-05-01T14:56:16.470Z,12.90
2019-05-01T14:58:45.832Z,12.96
2019-05-01T15:01:15.210Z,12.98
2019-05-01T15:03:44.700Z,13.12
2019-05-01T15:06:14.048Z,13.32
2019-05-01T15:08:43.346Z,13.60
2019-05-01T15:11:12.756Z,13.88
2019-05-01T15:13:43.704Z,13.94
2019-05-01T15:16:26.761Z,14.15
2019-05-01T15:19:09.752Z,14.23
2019-05-01T15:21:39.236Z,14.24
2019-05-01T15:24:08.611Z,14.18
2019-05-01T15:26:38.038Z,14.22
2019-05-01T15:29:07.440Z,14.27
2019-05-01T15:31:36.954Z,14.34
2019-05-01T15:34:06.263Z,14.35
2019-05-01T15:36:35.862Z,14.45
2019-05-01T15:39:09.128Z,14.79
2019-05-01T15:41:56.724Z,15.01
2019-05-01T15:44:27.684Z,15.53
2019-05-01T15:46:57.033Z,16.16
2019-05-01T15:49:26.490Z,16.33
2019-05-01T15:51:56.014Z,16.40
2019-05-01T15:54:25.383Z,16.36
2019-05-01T15:56:55.008Z,16.52
2019-05-01T15:59:24.433Z,16.73
2019-05-01T16:01:53.929Z,17.00
2019-05-01T16:04:23.465Z,17.25
2019-05-01T16:06:52.966Z,17.37
2019-05-01T16:09:22.419Z,17.46
2019-05-01T16:12:09.493Z,17.28
2019-05-01T16:14:39.340Z,17.17
2019-05-01T16:17:08.686Z,17.01
2019-05-01T16:19:38.016Z,16.84
2019-05-01T16:22:07.484Z,16.48
2019-05-01T16:24:36.854Z,16.21
2019-05-01T16:27:06.192Z,15.91
2019-05-01T16:29:35.598Z,15.74
2019-05-01T16:32:05.456Z,15.51
2019-05-01T16:34:35.609Z,15.38
2019-05-01T16:37:05.098Z,15.21
2019-05-01T16:39:36.141Z,15.15
2019-05-01T16:42:05.595Z,14.94
2019-05-01T16:44:34.985Z,14.90
2019-05-01T16:47:04.548Z,14.87
2019-05-01T16:49:33.940Z,14.85
2019-05-01T16:52:03.343Z,14.84
2019-05-01T16:54:32.726Z,14.82
2019-05-01T16:57:02.100Z,14.80
2019-05-01T16:59:31.516Z,14.73
2019-05-01T17:02:02.802Z,14.64
2019-05-01T17:04:36.731Z,14.52
2019-05-01T17:07:16.601Z,14.42
2019-05-01T17:10:02.715Z,14.47
2019-05-01T17:12:34.139Z,14.29
2019-05-01T17:15:03.594Z,14.21
2019-05-01T17:17:33.861Z,14.06
2019-05-01T17:20:03.529Z,13.95
2019-05-01T17:22:32.803Z,13.83
2019-05-01T17:25:02.563Z,13.78
2019-05-01T17:27:31.927Z,13.74
2019-05-01T17:30:01.418Z,13.71
2019-05-01T17:32:30.786Z,13.69
2019-05-01T17:35:01.980Z,13.70
2019-05-01T17:37:31.371Z,13.67
2019-05-01T17:40:00.770Z,13.66
2019-05-01T17:42:33.022Z,13.65
2019-05-01T17:45:01.226Z,13.55
2019-05-01T17:47:30.672Z,13.52
2019-05-01T17:49:59.974Z,13.47
2019-05-01T17:52:29.436Z,13.45
2019-05-01T17:55:01.238Z,13.43
2019-05-01T17:57:30.415Z,13.42
2019-05-01T18:00:01.513Z,13.33
2019-05-01T18:02:51.055Z,13.27
2019-05-01T18:05:22.024Z,13.20
2019-05-01T18:07:51.506Z,13.19
2019-05-01T18:10:20.895Z,13.12
2019-05-01T18:12:50.298Z,13.10
2019-05-01T18:15:19.870Z,13.09
2019-05-01T18:17:49.349Z,13.07
2019-05-01T18:20:19.562Z,13.03
2019-05-01T18:23:08.512Z,12.97
2019-05-01T18:25:42.305Z,12.94
2019-05-01T18:28:19.415Z,12.89
2019-05-01T18:30:51.619Z,12.88
2019-05-01T18:33:22.047Z,12.85
2019-05-01T18:35:51.606Z,12.86
2019-05-01T18:38:28.660Z,12.83
2019-05-01T18:40:59.679Z,12.84
2019-05-01T18:43:32.240Z,12.82
2019-05-01T18:46:01.083Z,12.77
2019-05-01T18:48:30.468Z,12.72
2019-05-01T18:50:59.870Z,12.64
2019-05-01T18:53:29.302Z,12.61
2019-05-01T18:56:01.474Z,12.56
2019-05-01T18:58:31.479Z,12.52
2019-05-01T19:01:03.943Z,12.47
2019-05-01T19:03:32.264Z,12.43
2019-05-01T19:06:01.801Z,12.41
2019-05-01T19:08:31.215Z,12.39
2019-05-01T19:11:11.786Z,12.36
2019-05-01T19:13:32.148Z,12.35
2019-05-01T19:16:03.437Z,12.35
2019-05-01T19:18:32.683Z,12.36
2019-05-01T19:21:02.060Z,12.32
2019-05-01T19:23:33.219Z,12.30
2019-05-01T19:26:06.463Z,12.24
2019-05-01T19:28:34.289Z,12.25
2019-05-01T19:31:03.849Z,12.21
2019-05-01T19:33:33.255Z,12.19
2019-05-01T19:36:08.347Z,12.15
2019-05-01T19:38:34.787Z,12.14
2019-05-01T19:41:08.908Z,12.13
2019-05-01T19:43:40.750Z,12.09
2019-05-01T19:46:08.263Z,12.10
2019-05-01T19:48:37.650Z,12.13
2019-05-01T19:51:07.046Z,12.13
2019-05-01T19:53:36.449Z,12.14
2019-05-01T19:56:06.027Z,12.12
2019-05-01T19:58:35.439Z,12.15
2019-05-01T20:01:06.125Z,12.18
2019-05-01T20:03:36.775Z,12.18
2019-05-01T20:06:08.203Z,12.25
2019-05-01T20:08:37.920Z,12.21
2019-05-01T20:11:09.517Z,12.22
2019-05-01T20:13:38.457Z,12.20
2019-05-01T20:16:09.260Z,12.16
2019-05-01T20:18:38.902Z,12.17
2019-05-01T20:21:08.456Z,12.19
2019-05-01T20:23:37.796Z,12.21
2019-05-01T20:26:08.181Z,12.18
2019-05-01T20:28:37.571Z,12.14
2019-05-01T20:31:07.131Z,12.20
2019-05-01T20:33:38.921Z,12.18
2019-05-01T20:36:07.572Z,12.20
2019-05-01T20:38:36.989Z,12.12
2019-05-01T20:41:10.437Z,12.10
2019-05-01T20:43:38.126Z,12.09
2019-05-01T20:46:08.584Z,12.01
2019-05-01T20:48:37.957Z,12.04
2019-05-01T20:51:07.373Z,12.08
2019-05-01T20:53:36.749Z,12.06
2019-05-01T20:56:07.759Z,12.05
2019-05-01T20:58:37.211Z,12.03
2019-05-01T21:01:06.747Z,11.97
2019-05-01T21:03:37.773Z,12.17
2019-05-01T21:06:09.199Z,12.20
2019-05-01T21:08:46.539Z,12.14
2019-05-01T21:11:17.777Z,12.08
2019-05-01T21:13:47.155Z,12.06
2019-05-01T21:16:17.825Z,12.09
2019-05-01T21:18:47.223Z,12.08
2019-05-01T21:21:16.631Z,12.08
2019-05-01T21:23:48.183Z,12.08
2019-05-01T21:26:17.146Z,12.07
2019-05-01T21:28:46.529Z,12.05
2019-05-01T21:31:15.898Z,12.09
2019-05-01T21:33:50.259Z,12.08
2019-05-01T21:36:16.404Z,12.02
2019-05-01T21:38:45.700Z,12.00
2019-05-01T21:41:16.942Z,12.02
2019-05-01T21:43:46.127Z,12.01
2019-05-01T21:46:15.686Z,12.02
2019-05-01T21:48:45.147Z,11.93
2019-05-01T21:51:14.558Z,11.90
2019-05-01T21:53:46.377Z,11.92
2019-05-01T21:56:15.184Z,11.93
2019-05-01T21:58:45.236Z,11.90
2019-05-01T22:01:14.852Z,11.96
2019-05-01T22:03:44.256Z,12.01
2019-05-01T22:06:15.420Z,12.00
2019-05-01T22:08:44.654Z,12.02
2019-05-01T22:11:13.953Z,12.02
2019-05-01T22:13:43.490Z,12.01
2019-05-01T22:16:18.482Z,11.98
2019-05-01T22:19:02.138Z,11.94
2019-05-01T22:21:41.973Z,11.94
2019-05-01T22:24:13.057Z,12.03
2019-05-01T22:26:44.069Z,12.06
2019-05-01T22:29:15.101Z,12.03
2019-05-01T22:32:02.282Z,12.06
2019-05-01T22:34:36.451Z,12.06
2019-05-01T22:37:05.968Z,12.04
2019-05-01T22:39:37.003Z,12.01
2019-05-01T22:42:06.498Z,12.06
2019-05-01T22:44:35.949Z,12.09
2019-05-01T22:47:10.247Z,12.19
2019-05-01T22:49:37.535Z,12.19
2019-05-01T22:52:06.896Z,12.18
2019-05-01T22:54:36.270Z,12.15
2019-05-01T22:57:05.673Z,12.21
2019-05-01T22:59:35.118Z,12.20
2019-05-01T23:02:06.556Z,12.21
2019-05-01T23:04:35.959Z,12.18
2019-05-01T23:07:05.415Z,12.20
2019-05-01T23:09:35.182Z,12.18
2019-05-01T23:12:04.583Z,12.22
2019-05-01T23:14:34.141Z,12.24
2019-05-01T23:17:11.287Z,12.19
2019-05-01T23:19:40.589Z,12.14
2019-05-01T23:22:10.223Z,12.09
2019-05-01T23:24:39.646Z,12.04
2019-05-01T23:27:09.042Z,12.08
2019-05-01T23:29:38.337Z,12.07
2019-05-01T23:32:07.905Z,12.11
2019-05-01T23:34:37.279Z,12.11
2019-05-01T23:37:06.654Z,12.13
2019-05-01T23:39:40.433Z,12.12
2019-05-01T23:42:07.057Z,12.13
2019-05-01T23:44:38.147Z,12.16
2019-05-01T23:47:08.404Z,12.13
2019-05-01T23:49:37.714Z,12.12
2019-05-01T23:52:07.163Z,12.05
2019-05-01T23:54:36.568Z,12.03
2019-05-01T23:57:05.955Z,11.93
2019-05-01T23:59:35.424Z,11.90
